createdAt,value
2022-09-14T00:01:14.468Z,2.45
2022-09-14T00:03:40.358Z,2.38
2022-09-14T00:06:11.130Z,2.50
2022-09-14T00:08:38.420Z,2.08
2022-09-14T00:11:11.887Z,2.20
2022-09-14T00:13:41.588Z,2.10
2022-09-14T00:16:16.107Z,2.25
2022-09-14T00:18:43.418Z,2.38
2022-09-14T00:21:12.013Z,2.58
2022-09-14T00:23:40.520Z,1.95
2022-09-14T00:26:11.841Z,2.47
2022-09-14T00:28:43.925Z,2.35
2022-09-14T00:31:11.878Z,2.25
2022-09-14T00:33:41.128Z,2.17
2022-09-14T00:36:10.969Z,2.40
2022-09-14T00:38:39.117Z,2.80
2022-09-14T00:41:07.804Z,2.33
2022-09-14T00:44:01.910Z,2.10
2022-09-14T00:46:32.354Z,2.17
2022-09-14T00:49:01.745Z,2.47
2022-09-14T00:51:33.065Z,2.25
2022-09-14T00:54:04.199Z,2.42
2022-09-14T00:56:31.293Z,2.05
2022-09-14T00:59:00.106Z,2.20
2022-09-14T01:01:27.331Z,2.47
2022-09-14T01:03:54.217Z,2.30
2022-09-14T01:06:48.849Z,2.40
2022-09-14T01:09:32.262Z,2.28
2022-09-14T01:12:13.905Z,2.25
2022-09-14T01:15:05.501Z,2.15
2022-09-14T01:18:04.539Z,2.30
2022-09-14T01:20:39.873Z,2.17
2022-09-14T01:23:29.547Z,2.00
2022-09-14T01:26:40.432Z,2.25
2022-09-14T01:29:17.967Z,2.30
2022-09-14T01:31:57.750Z,2.47
2022-09-14T01:34:31.946Z,2.40
2022-09-14T01:37:06.327Z,2.25
2022-09-14T01:39:36.118Z,2.20
2022-09-14T01:42:04.257Z,2.17
2022-09-14T01:44:42.068Z,2.50
2022-09-14T01:47:26.505Z,2.10
2022-09-14T01:49:59.251Z,2.45
2022-09-14T01:52:34.074Z,2.30
2022-09-14T01:55:11.354Z,2.40
2022-09-14T01:57:46.325Z,2.95
2022-09-14T02:00:17.571Z,2.40
2022-09-14T02:03:03.960Z,2.45
2022-09-14T02:05:40.551Z,2.75
2022-09-14T02:08:08.891Z,2.45
2022-09-14T02:10:35.834Z,2.10
2022-09-14T02:13:02.736Z,2.25
2022-09-14T02:15:29.778Z,2.65
2022-09-14T02:17:56.541Z,2.35
2022-09-14T02:20:52.744Z,2.55
2022-09-14T02:23:19.865Z,2.20
2022-09-14T02:25:47.597Z,2.40
2022-09-14T02:28:14.639Z,2.42
2022-09-14T02:31:18.613Z,2.88
2022-09-14T02:34:03.094Z,2.33
2022-09-14T02:36:54.174Z,2.50
2022-09-14T02:39:56.319Z,2.70
2022-09-14T02:42:24.022Z,2.70
2022-09-14T02:45:16.606Z,2.80
2022-09-14T02:48:12.911Z,2.38
2022-09-14T02:51:05.693Z,2.40
2022-09-14T02:53:50.679Z,2.50
2022-09-14T02:56:19.397Z,2.60
2022-09-14T02:58:46.573Z,2.28
2022-09-14T03:01:19.143Z,2.55
2022-09-14T03:03:46.084Z,2.40
2022-09-14T03:06:13.685Z,2.38
2022-09-14T03:08:40.943Z,2.85
2022-09-14T03:11:07.746Z,2.78
2022-09-14T03:13:35.908Z,3.05
2022-09-14T03:16:14.892Z,3.13
2022-09-14T03:18:42.398Z,3.17
2022-09-14T03:21:15.617Z,3.20
2022-09-14T03:23:48.383Z,2.80
2022-09-14T03:26:20.648Z,2.83
2022-09-14T03:28:51.511Z,2.70
2022-09-14T03:31:18.896Z,2.92
2022-09-14T03:33:45.844Z,2.92
2022-09-14T03:36:18.645Z,2.50
2022-09-14T03:38:48.324Z,2.70
2022-09-14T03:41:16.017Z,2.50
2022-09-14T03:43:43.520Z,2.42
2022-09-14T03:46:21.482Z,2.30
2022-09-14T03:48:49.148Z,3.00
2022-09-14T03:51:16.656Z,2.65
2022-09-14T03:53:45.250Z,2.30
2022-09-14T03:56:15.741Z,2.20
2022-09-14T03:58:43.962Z,2.67
2022-09-14T04:01:14.569Z,2.70
2022-09-14T04:03:42.094Z,2.45
2022-09-14T04:06:10.156Z,2.75
2022-09-14T04:08:40.253Z,2.60
2022-09-14T04:11:22.273Z,2.38
2022-09-14T04:13:50.162Z,2.10
2022-09-14T04:16:18.883Z,2.05
2022-09-14T04:18:45.879Z,2.25
2022-09-14T04:21:16.276Z,2.90
2022-09-14T04:24:03.477Z,2.58
2022-09-14T04:26:31.705Z,2.80
2022-09-14T04:28:59.285Z,2.83
2022-09-14T04:31:26.599Z,2.30
2022-09-14T04:33:57.192Z,2.42
2022-09-14T04:36:28.644Z,2.30
2022-09-14T04:38:58.879Z,2.53
2022-09-14T04:41:26.119Z,2.28
2022-09-14T04:43:54.405Z,2.70
2022-09-14T04:46:24.231Z,2.67
2022-09-14T04:48:51.620Z,2.63
2022-09-14T04:51:20.898Z,2.58
2022-09-14T04:53:52.907Z,2.40
2022-09-14T04:56:22.667Z,2.58
2022-09-14T04:58:52.638Z,2.50
2022-09-14T05:01:22.108Z,2.35
2022-09-14T05:03:49.972Z,2.47
2022-09-14T05:06:19.638Z,2.30
2022-09-14T05:11:19.697Z,2.40
2022-09-14T05:13:49.952Z,2.10
2022-09-14T05:16:23.662Z,2.50
2022-09-14T05:18:51.894Z,2.63
2022-09-14T05:21:20.699Z,2.40
2022-09-14T05:23:48.192Z,2.50
2022-09-14T05:26:15.197Z,2.47
2022-09-14T05:28:42.161Z,2.60
2022-09-14T05:31:11.146Z,2.17
2022-09-14T05:33:38.170Z,1.98
2022-09-14T05:36:07.027Z,2.50
2022-09-14T05:38:36.303Z,2.22
2022-09-14T05:41:04.429Z,2.17
2022-09-14T05:43:31.350Z,2.35
2022-09-14T05:46:02.962Z,2.88
2022-09-14T05:48:34.772Z,2.42
2022-09-14T05:51:04.403Z,2.25
2022-09-14T05:53:31.392Z,2.08
2022-09-14T05:56:08.134Z,2.88
2022-09-14T05:58:36.767Z,2.58
2022-09-14T06:01:24.363Z,2.47
2022-09-14T06:03:54.717Z,2.42
2022-09-14T06:06:22.249Z,2.28
2022-09-14T06:08:52.690Z,2.30
2022-09-14T06:11:23.206Z,2.33
2022-09-14T06:13:50.529Z,2.30
2022-09-14T06:16:19.726Z,1.85
2022-09-14T06:18:48.029Z,1.98
2022-09-14T06:21:16.852Z,2.65
2022-09-14T06:23:44.453Z,2.10
2022-09-14T06:26:12.350Z,2.30
2022-09-14T06:28:39.552Z,2.20
2022-09-14T06:31:07.866Z,1.98
2022-09-14T06:33:35.714Z,2.10
2022-09-14T06:36:07.518Z,2.00
2022-09-14T06:38:34.334Z,2.45
2022-09-14T06:41:04.848Z,2.50
2022-09-14T06:43:34.134Z,2.42
2022-09-14T06:48:31.779Z,2.50
2022-09-14T06:53:25.362Z,2.22
2022-09-14T06:55:53.283Z,2.60
2022-09-14T06:58:20.051Z,2.25
2022-09-14T07:00:47.011Z,2.17
2022-09-14T07:03:14.069Z,2.25
2022-09-14T07:05:40.875Z,2.60
2022-09-14T07:08:11.969Z,2.20
2022-09-14T07:10:39.314Z,2.22
2022-09-14T07:13:06.090Z,2.20
2022-09-14T07:15:33.464Z,2.00
2022-09-14T07:18:00.468Z,2.30
2022-09-14T07:20:27.407Z,2.30
2022-09-14T07:22:54.166Z,2.53
2022-09-14T07:25:21.190Z,2.20
2022-09-14T07:27:48.087Z,2.53
2022-09-14T07:30:14.855Z,2.08
2022-09-14T07:32:41.851Z,2.13
2022-09-14T07:35:08.930Z,2.35
2022-09-14T07:37:35.742Z,2.30
2022-09-14T07:40:02.778Z,2.25
2022-09-14T07:42:29.722Z,2.63
2022-09-14T07:44:56.446Z,2.10
2022-09-14T07:47:23.415Z,2.08
2022-09-14T07:49:50.184Z,2.17
2022-09-14T07:52:17.155Z,2.10
2022-09-14T07:54:44.393Z,2.35
2022-09-14T07:57:11.313Z,2.20
2022-09-14T07:59:38.493Z,1.92
2022-09-14T08:02:11.160Z,2.13
2022-09-14T08:04:41.020Z,1.90
2022-09-14T08:07:08.566Z,2.33
2022-09-14T08:09:39.514Z,2.20
2022-09-14T08:12:06.582Z,2.47
2022-09-14T08:14:33.777Z,2.38
2022-09-14T08:17:01.068Z,2.28
2022-09-14T08:19:28.043Z,2.50
2022-09-14T08:21:55.079Z,2.83
2022-09-14T08:24:22.084Z,2.72
2022-09-14T08:26:49.284Z,2.58
2022-09-14T08:29:17.823Z,2.65
2022-09-14T08:31:46.160Z,2.78
2022-09-14T08:34:14.253Z,2.75
2022-09-14T08:36:42.649Z,3.50
2022-09-14T08:39:11.647Z,3.03
2022-09-14T08:41:41.374Z,3.00
2022-09-14T08:44:31.019Z,2.83
2022-09-14T08:47:05.087Z,3.00
2022-09-14T08:49:53.848Z,2.65
2022-09-14T08:52:35.847Z,2.50
2022-09-14T08:55:23.428Z,2.35
2022-09-14T08:58:14.956Z,2.42
2022-09-14T09:00:48.894Z,2.75
2022-09-14T09:03:36.537Z,2.30
2022-09-14T09:06:15.586Z,2.65
2022-09-14T09:08:49.911Z,2.83
2022-09-14T09:11:22.471Z,2.70
2022-09-14T09:13:52.120Z,2.42
2022-09-14T09:16:23.623Z,2.17
2022-09-14T09:19:05.768Z,2.28
2022-09-14T09:21:38.580Z,2.00
2022-09-14T09:24:37.518Z,2.17
2022-09-14T09:27:12.066Z,2.22
2022-09-14T09:29:39.027Z,2.17
2022-09-14T09:32:09.881Z,2.53
2022-09-14T09:34:36.726Z,2.25
2022-09-14T09:37:04.373Z,2.30
2022-09-14T09:39:31.893Z,2.10
2022-09-14T09:42:06.741Z,2.53
2022-09-14T09:45:04.039Z,2.17
2022-09-14T09:47:37.887Z,2.45
2022-09-14T09:50:13.908Z,2.78
2022-09-14T09:52:54.393Z,2.15
2022-09-14T09:55:26.156Z,2.47
2022-09-14T09:57:54.749Z,2.30
2022-09-14T10:00:27.261Z,2.03
2022-09-14T10:02:54.921Z,2.00
2022-09-14T10:05:24.002Z,2.30
2022-09-14T10:10:21.931Z,2.50
2022-09-14T10:12:56.580Z,2.45
2022-09-14T10:15:30.727Z,2.22
2022-09-14T10:18:00.504Z,1.88
2022-09-14T10:20:27.979Z,2.25
2022-09-14T10:22:54.859Z,3.25
2022-09-14T10:25:26.102Z,3.03
2022-09-14T10:27:56.164Z,2.58
2022-09-14T10:30:32.529Z,2.10
2022-09-14T10:33:02.754Z,2.22
2022-09-14T10:35:40.307Z,2.00
2022-09-14T10:38:23.463Z,2.30
2022-09-14T10:41:06.878Z,2.10
2022-09-14T10:43:52.174Z,2.20
2022-09-14T10:46:29.655Z,2.72
2022-09-14T10:49:27.588Z,2.30
2022-09-14T10:52:17.810Z,2.45
2022-09-14T10:55:01.716Z,2.22
2022-09-14T10:57:57.085Z,1.98
2022-09-14T11:00:24.263Z,2.15
2022-09-14T11:03:17.527Z,2.05
2022-09-14T11:05:56.880Z,2.65
2022-09-14T11:08:33.215Z,2.30
2022-09-14T11:11:31.780Z,2.15
2022-09-14T11:14:05.936Z,2.00
2022-09-14T11:16:53.996Z,2.47
2022-09-14T11:20:00.065Z,2.00
2022-09-14T11:23:00.766Z,2.30
2022-09-14T11:25:48.165Z,2.33
2022-09-14T11:28:40.935Z,1.95
2022-09-14T11:31:16.440Z,2.20
2022-09-14T11:33:54.182Z,2.30
2022-09-14T11:36:28.556Z,2.20
2022-09-14T11:39:13.246Z,2.20
2022-09-14T11:41:45.480Z,2.60
2022-09-14T11:44:18.027Z,2.40
2022-09-14T11:47:04.042Z,2.25
2022-09-14T11:49:44.395Z,2.20
2022-09-14T11:52:21.161Z,2.50
2022-09-14T11:54:50.158Z,2.30
2022-09-14T11:57:20.548Z,1.90
2022-09-14T11:59:50.784Z,2.30
2022-09-14T12:02:25.320Z,2.25
2022-09-14T12:05:07.376Z,2.45
2022-09-14T12:07:59.946Z,2.47
2022-09-14T12:10:27.813Z,2.45
2022-09-14T12:12:57.154Z,2.15
2022-09-14T12:18:24.168Z,2.70
2022-09-14T12:21:02.658Z,2.25
2022-09-14T12:23:44.232Z,1.95
2022-09-14T12:26:11.227Z,2.00
2022-09-14T12:28:38.104Z,2.15
2022-09-14T12:31:05.160Z,2.03
2022-09-14T12:33:32.323Z,2.00
2022-09-14T12:36:00.075Z,2.40
2022-09-14T12:38:29.843Z,2.42
2022-09-14T12:41:02.423Z,2.50
2022-09-14T12:43:35.337Z,1.63
2022-09-14T12:46:09.815Z,2.10
2022-09-14T12:48:45.933Z,2.75
2022-09-14T12:51:27.175Z,1.95
2022-09-14T12:53:58.157Z,2.05
2022-09-14T12:56:41.620Z,2.00
2022-09-14T12:59:26.794Z,2.10
2022-09-14T13:02:21.924Z,1.90
2022-09-14T13:04:54.244Z,2.22
2022-09-14T13:07:22.977Z,1.90
2022-09-14T13:09:52.705Z,2.22
2022-09-14T13:12:41.397Z,1.85
2022-09-14T13:15:18.981Z,2.30
2022-09-14T13:18:18.072Z,2.03
2022-09-14T13:20:53.894Z,2.33
2022-09-14T13:23:28.540Z,2.10
2022-09-14T13:25:56.248Z,2.47
2022-09-14T13:28:31.131Z,3.03
2022-09-14T13:31:01.496Z,3.45
2022-09-14T13:33:31.465Z,2.15
2022-09-14T13:36:01.701Z,2.38
2022-09-14T13:38:34.817Z,3.42
2022-09-14T13:41:08.405Z,2.53
2022-09-14T13:43:35.524Z,2.13
2022-09-14T13:46:02.730Z,2.35
2022-09-14T13:48:29.693Z,2.03
2022-09-14T13:50:56.851Z,2.17
2022-09-14T13:53:51.006Z,2.35
2022-09-14T13:56:19.495Z,2.72
2022-09-14T13:58:48.977Z,3.20
2022-09-14T14:01:40.609Z,4.15
2022-09-14T14:04:25.638Z,3.05
2022-09-14T14:07:05.420Z,3.45
2022-09-14T14:09:50.716Z,2.92
2022-09-14T14:12:27.980Z,3.40
2022-09-14T14:14:58.020Z,4.05
2022-09-14T14:17:27.725Z,3.95
2022-09-14T14:19:57.358Z,4.88
2022-09-14T14:22:35.611Z,6.35
2022-09-14T14:25:19.172Z,3.63
2022-09-14T14:27:47.780Z,8.55
2022-09-14T14:30:16.409Z,4.87
2022-09-14T14:32:43.490Z,4.93
2022-09-14T14:35:20.102Z,4.88
2022-09-14T14:37:47.945Z,5.28
2022-09-14T14:40:16.393Z,7.93
2022-09-14T14:42:44.227Z,5.47
2022-09-14T14:45:35.417Z,5.68
2022-09-14T14:48:03.850Z,5.53
2022-09-14T14:50:34.071Z,4.80
2022-09-14T14:53:01.982Z,5.22
2022-09-14T14:55:32.395Z,3.30
2022-09-14T14:58:02.593Z,4.72
2022-09-14T15:00:34.242Z,3.33
2022-09-14T15:03:01.664Z,2.67
2022-09-14T15:05:28.771Z,3.55
2022-09-14T15:07:56.227Z,2.90
2022-09-14T15:10:25.874Z,3.00
2022-09-14T15:12:52.668Z,3.35
2022-09-14T15:15:23.978Z,3.33
2022-09-14T15:17:51.951Z,3.40
2022-09-14T15:20:19.955Z,3.58
2022-09-14T15:22:48.275Z,3.50
2022-09-14T15:25:17.229Z,3.83
2022-09-14T15:27:44.222Z,3.92
2022-09-14T15:30:12.452Z,3.72
2022-09-14T15:32:40.492Z,4.73
2022-09-14T15:35:10.143Z,4.25
2022-09-14T15:37:36.956Z,4.95
2022-09-14T15:40:04.751Z,5.15
2022-09-14T15:42:31.672Z,3.97
2022-09-14T15:44:58.442Z,3.55
2022-09-14T15:47:25.424Z,3.90
2022-09-14T15:49:55.246Z,4.13
2022-09-14T15:52:22.071Z,4.15
2022-09-14T15:54:49.330Z,4.63
2022-09-14T15:57:16.320Z,4.95
2022-09-14T15:59:43.217Z,4.60
2022-09-14T16:02:12.462Z,7.72
2022-09-14T16:04:39.736Z,4.82
2022-09-14T16:07:10.050Z,5.45
2022-09-14T16:09:38.963Z,3.90
2022-09-14T16:12:07.000Z,4.53
2022-09-14T16:14:34.164Z,6.32
2022-09-14T16:17:01.630Z,7.60
2022-09-14T16:19:28.985Z,4.82
2022-09-14T16:21:55.908Z,3.78
2022-09-14T16:24:24.545Z,4.70
2022-09-14T16:26:51.585Z,3.83
2022-09-14T16:29:20.154Z,3.72
2022-09-14T16:31:48.662Z,3.83
2022-09-14T16:34:24.525Z,3.45
2022-09-14T16:36:52.072Z,3.45
2022-09-14T16:39:25.280Z,3.50
2022-09-14T16:41:55.660Z,3.42
2022-09-14T16:44:24.959Z,3.80
2022-09-14T16:49:24.807Z,3.30
2022-09-14T16:51:53.711Z,3.67
2022-09-14T16:54:22.227Z,4.22
2022-09-14T16:56:49.263Z,3.63
2022-09-14T16:59:17.888Z,3.80
2022-09-14T17:01:49.681Z,3.70
2022-09-14T17:04:23.692Z,3.65
2022-09-14T17:06:52.167Z,5.00
2022-09-14T17:09:29.937Z,7.47
2022-09-14T17:11:57.868Z,8.07
2022-09-14T17:14:28.380Z,5.28
2022-09-14T17:16:55.680Z,4.15
2022-09-14T17:19:23.128Z,4.05
2022-09-14T17:21:50.355Z,4.13
2022-09-14T17:24:18.924Z,4.60
2022-09-14T17:26:46.711Z,4.50
2022-09-14T17:29:15.277Z,3.92
2022-09-14T17:31:43.523Z,4.27
2022-09-14T17:34:12.431Z,4.50
2022-09-14T17:36:39.826Z,4.82
2022-09-14T17:39:11.786Z,4.47
2022-09-14T17:41:40.661Z,4.45
2022-09-14T17:44:09.808Z,4.57
2022-09-14T17:46:41.378Z,4.55
2022-09-14T17:49:14.097Z,4.60
2022-09-14T17:51:41.019Z,4.78
2022-09-14T17:54:08.034Z,4.60
2022-09-14T17:56:35.220Z,4.13
2022-09-14T17:59:10.063Z,3.78
2022-09-14T18:01:37.363Z,4.32
2022-09-14T18:04:07.317Z,4.32
2022-09-14T18:06:37.492Z,3.83
2022-09-14T18:09:07.971Z,4.10
2022-09-14T18:11:36.405Z,3.65
2022-09-14T18:14:04.723Z,3.92
2022-09-14T18:16:33.129Z,3.83
2022-09-14T18:19:00.349Z,4.03
2022-09-14T18:21:27.386Z,4.28
2022-09-14T18:23:55.387Z,4.25
2022-09-14T18:26:23.728Z,4.35
2022-09-14T18:28:53.582Z,3.97
2022-09-14T18:31:20.662Z,4.50
2022-09-14T18:33:59.472Z,4.45
2022-09-14T18:36:29.460Z,4.55
2022-09-14T18:38:57.249Z,5.05
2022-09-14T18:41:24.023Z,4.00
2022-09-14T18:43:52.851Z,5.07
2022-09-14T18:46:23.431Z,4.47
2022-09-14T18:48:56.788Z,4.57
2022-09-14T18:51:23.798Z,4.28
2022-09-14T18:53:57.211Z,4.18
2022-09-14T18:56:24.961Z,5.20
2022-09-14T18:58:51.909Z,4.90
2022-09-14T19:01:18.881Z,4.80
2022-09-14T19:03:46.183Z,4.70
2022-09-14T19:06:14.964Z,4.95
2022-09-14T19:08:42.871Z,5.20
2022-09-14T19:11:12.902Z,4.95
2022-09-14T19:13:40.133Z,5.03
2022-09-14T19:16:08.622Z,4.53
2022-09-14T19:18:36.174Z,4.38
2022-09-14T19:21:09.180Z,3.92
2022-09-14T19:23:37.269Z,4.18
2022-09-14T19:26:09.790Z,4.40
2022-09-14T19:28:37.560Z,3.80
2022-09-14T19:31:09.176Z,4.85
2022-09-14T19:33:36.117Z,5.50
2022-09-14T19:36:05.376Z,7.38
2022-09-14T19:38:32.459Z,6.45
2022-09-14T19:40:59.754Z,4.78
2022-09-14T19:43:27.195Z,4.72
2022-09-14T19:45:54.304Z,4.72
2022-09-14T19:48:21.143Z,4.05
2022-09-14T19:50:47.895Z,4.32
2022-09-14T19:53:14.882Z,4.38
2022-09-14T19:55:41.769Z,4.53
2022-09-14T19:58:08.516Z,4.60
2022-09-14T20:00:36.481Z,4.63
2022-09-14T20:03:03.943Z,4.40
2022-09-14T20:05:30.887Z,4.13
2022-09-14T20:07:57.909Z,4.32
2022-09-14T20:10:26.660Z,4.32
2022-09-14T20:12:54.315Z,4.68
2022-09-14T20:15:21.290Z,4.35
2022-09-14T20:17:48.044Z,4.40
2022-09-14T20:20:17.296Z,4.25
2022-09-14T20:22:44.344Z,4.35
2022-09-14T20:25:11.192Z,4.05
2022-09-14T20:27:38.002Z,4.03
2022-09-14T20:30:06.982Z,4.15
2022-09-14T20:32:33.793Z,5.00
2022-09-14T20:35:00.603Z,4.78
2022-09-14T20:37:28.627Z,4.43
2022-09-14T20:39:55.585Z,4.18
2022-09-14T20:42:22.384Z,3.85
2022-09-14T20:44:49.374Z,4.57
2022-09-14T20:47:16.138Z,4.22
2022-09-14T20:49:42.942Z,3.63
2022-09-14T20:52:09.954Z,3.53
2022-09-14T20:54:36.978Z,4.18
2022-09-14T20:57:04.722Z,3.95
2022-09-14T20:59:31.886Z,3.70
2022-09-14T21:02:02.300Z,4.20
2022-09-14T21:04:31.570Z,3.72
2022-09-14T21:06:58.543Z,3.22
2022-09-14T21:09:26.189Z,3.60
2022-09-14T21:11:53.557Z,3.35
2022-09-14T21:14:21.272Z,3.40
2022-09-14T21:16:51.823Z,3.60
2022-09-14T21:19:25.522Z,3.60
2022-09-14T21:21:53.415Z,3.42
2022-09-14T21:24:22.223Z,3.50
2022-09-14T21:26:49.479Z,3.72
2022-09-14T21:29:20.909Z,3.50
2022-09-14T21:31:48.887Z,2.88
2022-09-14T21:34:16.438Z,2.90
2022-09-14T21:36:49.202Z,2.92
2022-09-14T21:39:21.524Z,2.90
2022-09-14T21:41:53.458Z,3.05
2022-09-14T21:44:28.254Z,3.17
2022-09-14T21:46:55.204Z,3.33
2022-09-14T21:49:22.055Z,2.83
2022-09-14T21:51:49.116Z,2.80
2022-09-14T21:54:16.285Z,2.90
2022-09-14T21:56:45.233Z,2.95
2022-09-14T21:59:15.146Z,2.65
2022-09-14T22:01:43.018Z,3.10
2022-09-14T22:04:14.981Z,3.47
2022-09-14T22:06:41.840Z,2.80
2022-09-14T22:09:08.800Z,2.70
2022-09-14T22:11:37.296Z,2.60
2022-09-14T22:14:11.002Z,3.13
2022-09-14T22:16:38.447Z,2.85
2022-09-14T22:19:26.913Z,2.63
2022-09-14T22:21:54.837Z,2.60
2022-09-14T22:24:28.221Z,2.90
2022-09-14T22:26:57.397Z,2.78
2022-09-14T22:29:24.883Z,2.40
2022-09-14T22:31:52.428Z,2.60
2022-09-14T22:34:21.237Z,2.72
2022-09-14T22:36:48.062Z,2.85
2022-09-14T22:39:14.860Z,2.47
2022-09-14T22:41:42.382Z,2.25
2022-09-14T22:44:09.162Z,2.50
2022-09-14T22:46:36.201Z,2.25
2022-09-14T22:49:03.820Z,2.22
2022-09-14T22:51:31.577Z,2.58
2022-09-14T22:53:58.690Z,2.60
2022-09-14T22:56:31.735Z,2.28
2022-09-14T22:59:00.267Z,2.13
2022-09-14T23:01:31.825Z,2.72
2022-09-14T23:04:05.776Z,1.98
2022-09-14T23:06:41.928Z,2.17
2022-09-14T23:09:11.211Z,2.20
2022-09-14T23:11:38.501Z,2.40
2022-09-14T23:14:05.336Z,2.47
2022-09-14T23:16:32.234Z,2.40
2022-09-14T23:19:01.238Z,2.28
2022-09-14T23:21:29.513Z,2.40
2022-09-14T23:24:00.342Z,2.63
2022-09-14T23:26:28.409Z,2.28
2022-09-14T23:28:58.548Z,2.42
2022-09-14T23:31:26.922Z,2.30
2022-09-14T23:33:56.290Z,2.28
2022-09-14T23:36:24.228Z,1.98
2022-09-14T23:38:51.997Z,2.25
2022-09-14T23:41:20.779Z,2.42
2022-09-14T23:43:48.095Z,2.40
2022-09-14T23:46:15.739Z,2.47
2022-09-14T23:48:42.967Z,2.50
2022-09-14T23:51:11.159Z,2.55
2022-09-14T23:53:38.801Z,2.67
2022-09-14T23:56:06.474Z,2.33
2022-09-14T23:58:33.319Z,2.42
